Terminal Aerodrome Forecast
Issued by NWS Albuquerque, NM

Home | Current Version | Previous Version | Text Only | Print | Product List | Glossary On
Versions: 1 2 3 4 5 6 7 8 9 10 11 12 13
775
FTUS45 KABQ 300524
TAFABQ
TAF
KABQ 300524Z 3006/3106 17008KT P6SM FEW250
     FM301800 23010KT P6SM FEW150 SCT250
     FM302100 25011G21KT P6SM SCT150
     FM310200 19010KT P6SM SCT200=

USA.gov is the U.S. government's official web portal to all federal, state and local government web resources and services.